sensor_id;sensor_type;location;lat;lon;timestamp;pressure;altitude;pressure_sealevel;temperature;humidity
20015;BME280;61787;42.022;23.078;2023-01-04T00:00:52;97818.91;;;3.78;95.59
20015;BME280;61787;42.022;23.078;2023-01-04T00:01:54;97815.19;;;3.79;95.60
20015;BME280;61787;42.022;23.078;2023-01-04T00:02:55;97816.50;;;3.77;95.24
20015;BME280;61787;42.022;23.078;2023-01-04T00:03:57;97821.53;;;3.63;95.36
20015;BME280;61787;42.022;23.078;2023-01-04T00:04:59;97825.22;;;3.52;94.76
20015;BME280;61787;42.022;23.078;2023-01-04T00:06:03;97827.31;;;3.45;94.78
20015;BME280;61787;42.022;23.078;2023-01-04T00:07:05;97819.34;;;3.45;94.99
20015;BME280;61787;42.022;23.078;2023-01-04T00:08:06;97818.84;;;3.48;95.74
20015;BME280;61787;42.022;23.078;2023-01-04T00:09:08;97825.22;;;3.52;95.32
20015;BME280;61787;42.022;23.078;2023-01-04T00:10:10;97828.13;;;3.51;96.02
20015;BME280;61787;42.022;23.078;2023-01-04T00:11:17;97827.59;;;3.49;96.01
20015;BME280;61787;42.022;23.078;2023-01-04T00:12:19;97823.06;;;3.44;96.45
20015;BME280;61787;42.022;23.078;2023-01-04T00:13:20;97834.44;;;3.34;96.77
20015;BME280;61787;42.022;23.078;2023-01-04T00:14:22;97832.03;;;3.23;96.70
20015;BME280;61787;42.022;23.078;2023-01-04T00:15:24;97833.09;;;3.22;97.49
20015;BME280;61787;42.022;23.078;2023-01-04T00:16:27;97831.25;;;3.22;97.86
20015;BME280;61787;42.022;23.078;2023-01-04T00:17:29;97833.91;;;3.27;97.66
20015;BME280;61787;42.022;23.078;2023-01-04T00:18:32;97833.63;;;3.29;97.94
20015;BME280;61787;42.022;23.078;2023-01-04T00:19:33;97839.75;;;3.34;98.19
20015;BME280;61787;42.022;23.078;2023-01-04T00:20:35;97830.72;;;3.35;97.49
20015;BME280;61787;42.022;23.078;2023-01-04T00:21:36;97842.41;;;3.39;97.86
20015;BME280;61787;42.022;23.078;2023-01-04T00:22:38;97838.94;;;3.39;97.51
20015;BME280;61787;42.022;23.078;2023-01-04T00:23:41;97833.59;;;3.24;97.38
20015;BME280;61787;42.022;23.078;2023-01-04T00:24:42;97840.44;;;3.05;97.53
20015;BME280;61787;42.022;23.078;2023-01-04T00:25:44;97839.38;;;3.00;97.93
20015;BME280;61787;42.022;23.078;2023-01-04T00:26:46;97837.19;;;2.92;98.04
20015;BME280;61787;42.022;23.078;2023-01-04T00:27:49;97843.28;;;2.93;99.15
20015;BME280;61787;42.022;23.078;2023-01-04T00:28:55;97839.81;;;2.87;99.35
20015;BME280;61787;42.022;23.078;2023-01-04T00:29:57;97839.28;;;2.80;100.00
20015;BME280;61787;42.022;23.078;2023-01-04T00:31:04;97837.56;;;2.59;100.00
20015;BME280;61787;42.022;23.078;2023-01-04T00:32:06;97836.94;;;2.47;100.00
20015;BME280;61787;42.022;23.078;2023-01-04T00:33:07;97836.28;;;2.25;100.00
20015;BME280;61787;42.022;23.078;2023-01-04T00:34:12;97840.97;;;2.18;100.00
20015;BME280;61787;42.022;23.078;2023-01-04T00:35:14;97846.28;;;2.18;100.00
20015;BME280;61787;42.022;23.078;2023-01-04T00:36:36;97845.72;;;2.15;100.00
20015;BME280;61787;42.022;23.078;2023-01-04T00:37:37;97841.50;;;2.14;100.00
20015;BME280;61787;42.022;23.078;2023-01-04T00:38:40;97850.28;;;2.20;100.00
20015;BME280;61787;42.022;23.078;2023-01-04T00:39:41;97849.47;;;2.20;100.00
20015;BME280;61787;42.022;23.078;2023-01-04T00:40:43;97842.06;;;2.22;100.00
20015;BME280;61787;42.022;23.078;2023-01-04T00:41:50;97849.47;;;2.20;100.00
20015;BME280;61787;42.022;23.078;2023-01-04T00:43:01;97849.97;;;2.17;100.00
20015;BME280;61787;42.022;23.078;2023-01-04T00:44:04;97846.28;;;2.18;100.00
20015;BME280;61787;42.022;23.078;2023-01-04T00:45:06;97844.69;;;2.17;100.00
20015;BME280;61787;42.022;23.078;2023-01-04T00:46:08;97839.34;;;2.11;100.00
20015;BME280;61787;42.022;23.078;2023-01-04T00:47:11;97844.06;;;2.04;100.00
20015;BME280;61787;42.022;23.078;2023-01-04T00:48:13;97848.81;;;2.02;100.00
20015;BME280;61787;42.022;23.078;2023-01-04T00:49:15;97845.59;;;2.00;100.00
20015;BME280;61787;42.022;23.078;2023-01-04T00:50:16;97849.03;;;2.01;100.00
20015;BME280;61787;42.022;23.078;2023-01-04T00:51:18;97850.38;;;1.98;100.00
20015;BME280;61787;42.022;23.078;2023-01-04T00:52:19;97851.72;;;2.06;100.00
20015;BME280;61787;42.022;23.078;2023-01-04T00:53:21;97847.00;;;2.08;100.00
20015;BME280;61787;42.022;23.078;2023-01-04T00:54:23;97846.19;;;2.07;100.00
20015;BME280;61787;42.022;23.078;2023-01-04T00:55:24;97847.28;;;2.11;100.00
20015;BME280;61787;42.022;23.078;2023-01-04T00:56:29;97840.47;;;2.21;100.00
20015;BME280;61787;42.022;23.078;2023-01-04T00:57:31;97838.94;;;2.25;100.00
20015;BME280;61787;42.022;23.078;2023-01-04T00:58:33;97846.94;;;2.35;100.00
20015;BME280;61787;42.022;23.078;2023-01-04T00:59:34;97847.22;;;2.38;100.00
20015;BME280;61787;42.022;23.078;2023-01-04T01:00:36;97847.81;;;2.45;100.00
20015;BME280;61787;42.022;23.078;2023-01-04T01:01:38;97849.16;;;2.53;100.00
20015;BME280;61787;42.022;23.078;2023-01-04T01:02:40;97851.34;;;2.61;100.00
20015;BME280;61787;42.022;23.078;2023-01-04T01:03:42;97862.00;;;2.71;100.00
20015;BME280;61787;42.022;23.078;2023-01-04T01:04:45;97851.97;;;2.78;100.00
20015;BME280;61787;42.022;23.078;2023-01-04T01:05:46;97861.53;;;2.84;100.00
20015;BME280;61787;42.022;23.078;2023-01-04T01:06:49;97850.94;;;2.84;100.00
20015;BME280;61787;42.022;23.078;2023-01-04T01:07:51;97857.84;;;2.85;99.71
20015;BME280;61787;42.022;23.078;2023-01-04T01:08:52;97849.63;;;2.87;99.58
20015;BME280;61787;42.022;23.078;2023-01-04T01:09:54;97856.81;;;2.91;99.70
20015;BME280;61787;42.022;23.078;2023-01-04T01:11:03;97859.72;;;2.95;99.25
20015;BME280;61787;42.022;23.078;2023-01-04T01:12:05;97857.88;;;2.95;99.46
20015;BME280;61787;42.022;23.078;2023-01-04T01:13:06;97855.25;;;3.00;98.83
20015;BME280;61787;42.022;23.078;2023-01-04T01:14:13;97859.50;;;3.02;98.81
20015;BME280;61787;42.022;23.078;2023-01-04T01:15:15;97860.03;;;3.04;98.04
20015;BME280;61787;42.022;23.078;2023-01-04T01:16:19;97862.63;;;2.93;98.28
20015;BME280;61787;42.022;23.078;2023-01-04T01:17:41;97858.38;;;2.92;98.71
20015;BME280;61787;42.022;23.078;2023-01-04T01:18:43;97869.50;;;2.89;98.74
20015;BME280;61787;42.022;23.078;2023-01-04T01:19:45;97859.72;;;2.90;98.84
20015;BME280;61787;42.022;23.078;2023-01-04T01:20:47;97859.97;;;2.93;99.70
20015;BME280;61787;42.022;23.078;2023-01-04T01:21:48;97860.53;;;2.95;98.95
20015;BME280;61787;42.022;23.078;2023-01-04T01:22:50;97867.72;;;3.00;98.88
20015;BME280;61787;42.022;23.078;2023-01-04T01:23:53;97864.81;;;3.02;98.42
20015;BME280;61787;42.022;23.078;2023-01-04T01:24:55;97866.94;;;3.05;98.88
20015;BME280;61787;42.022;23.078;2023-01-04T01:26:02;97857.94;;;3.06;99.05
20015;BME280;61787;42.022;23.078;2023-01-04T01:27:03;97856.59;;;3.08;98.81
20015;BME280;61787;42.022;23.078;2023-01-04T01:28:06;97859.56;;;3.12;99.03
20015;BME280;61787;42.022;23.078;2023-01-04T01:29:07;97854.78;;;3.14;98.56
20015;BME280;61787;42.022;23.078;2023-01-04T01:30:09;97861.16;;;3.13;98.88
20015;BME280;61787;42.022;23.078;2023-01-04T01:31:29;97854.50;;;3.10;98.65
20015;BME280;61787;42.022;23.078;2023-01-04T01:32:30;97851.03;;;3.05;97.49
20015;BME280;61787;42.022;23.078;2023-01-04T01:33:34;97856.31;;;3.05;97.26
20015;BME280;61787;42.022;23.078;2023-01-04T01:34:36;97854.72;;;3.04;96.94
20015;BME280;61787;42.022;23.078;2023-01-04T01:35:37;97851.56;;;3.02;96.33
20015;BME280;61787;42.022;23.078;2023-01-04T01:36:39;97861.09;;;2.97;96.29
20015;BME280;61787;42.022;23.078;2023-01-04T01:37:40;97857.34;;;2.93;96.11
20015;BME280;61787;42.022;23.078;2023-01-04T01:38:42;97855.78;;;2.97;96.67
20015;BME280;61787;42.022;23.078;2023-01-04T01:39:44;97854.22;;;3.02;96.56
20015;BME280;61787;42.022;23.078;2023-01-04T01:40:46;97851.81;;;3.05;95.99
20015;BME280;61787;42.022;23.078;2023-01-04T01:41:47;97852.34;;;3.02;95.99
20015;BME280;61787;42.022;23.078;2023-01-04T01:42:49;97856.31;;;2.99;95.69
20015;BME280;61787;42.022;23.078;2023-01-04T01:43:56;97848.31;;;2.89;95.37
20015;BME280;61787;42.022;23.078;2023-01-04T01:45:01;97850.41;;;2.87;95.85
20015;BME280;61787;42.022;23.078;2023-01-04T01:46:03;97857.84;;;2.90;95.60
20015;BME280;61787;42.022;23.078;2023-01-04T01:47:06;97859.47;;;2.96;95.29
20015;BME280;61787;42.022;23.078;2023-01-04T01:48:22;97851.25;;;2.98;95.05
20015;BME280;61787;42.022;23.078;2023-01-04T01:49:37;97855.22;;;2.95;95.32
20015;BME280;61787;42.022;23.078;2023-01-04T01:50:43;97851.00;;;2.94;94.68
20015;BME280;61787;42.022;23.078;2023-01-04T01:51:48;97855.78;;;2.97;94.69
20015;BME280;61787;42.022;23.078;2023-01-04T01:52:51;97857.34;;;2.98;94.49
20015;BME280;61787;42.022;23.078;2023-01-04T01:54:00;97854.19;;;2.96;94.50
20015;BME280;61787;42.022;23.078;2023-01-04T01:55:05;97851.25;;;2.98;94.14
20015;BME280;61787;42.022;23.078;2023-01-04T01:56:09;97857.34;;;2.98;93.68
20015;BME280;61787;42.022;23.078;2023-01-04T01:57:15;97854.41;;;2.90;94.20
20015;BME280;61787;42.022;23.078;2023-01-04T01:58:27;97852.81;;;2.89;94.35
20015;BME280;61787;42.022;23.078;2023-01-04T01:59:33;97856.53;;;2.93;94.57
20015;BME280;61787;42.022;23.078;2023-01-04T02:00:36;97857.59;;;2.92;93.60
20015;BME280;61787;42.022;23.078;2023-01-04T02:01:38;97853.06;;;2.87;94.14
20015;BME280;61787;42.022;23.078;2023-01-04T02:03:57;97850.94;;;2.84;93.95
20015;BME280;61787;42.022;23.078;2023-01-04T02:05:01;97848.22;;;2.69;94.21
20015;BME280;61787;42.022;23.078;2023-01-04T02:06:06;97849.81;;;2.70;94.86
20015;BME280;61787;42.022;23.078;2023-01-04T02:07:11;97854.09;;;2.76;94.21
20015;BME280;61787;42.022;23.078;2023-01-04T02:08:15;97859.66;;;2.80;94.19
20015;BME280;61787;42.022;23.078;2023-01-04T02:09:18;97855.16;;;2.80;94.53
20015;BME280;61787;42.022;23.078;2023-01-04T02:10:21;97851.19;;;2.83;94.22
20015;BME280;61787;42.022;23.078;2023-01-04T02:11:25;97848.28;;;2.84;93.66
20015;BME280;61787;42.022;23.078;2023-01-04T02:12:26;97854.94;;;2.87;93.94
20015;BME280;61787;42.022;23.078;2023-01-04T02:13:29;97849.38;;;2.88;93.98
20015;BME280;61787;42.022;23.078;2023-01-04T02:14:51;97850.16;;;2.89;93.87
20015;BME280;61787;42.022;23.078;2023-01-04T02:16:16;97848.78;;;2.76;92.69
20015;BME280;61787;42.022;23.078;2023-01-04T02:19:13;97852.16;;;2.62;94.54
20015;BME280;61787;42.022;23.078;2023-01-04T02:28:18;97850.78;;;2.54;95.56
20015;BME280;61787;42.022;23.078;2023-01-04T02:31:26;97849.69;;;2.50;96.56
20015;BME280;61787;42.022;23.078;2023-01-04T02:33:02;97847.06;;;2.55;96.44
20015;BME280;61787;42.022;23.078;2023-01-04T02:38:57;97840.50;;;2.68;95.31
20015;BME280;61787;42.022;23.078;2023-01-04T02:42:38;97847.63;;;2.62;95.72
20015;BME280;61787;42.022;23.078;2023-01-04T02:44:42;97852.94;;;2.67;94.54
20015;BME280;61787;42.022;23.078;2023-01-04T02:46:02;97848.16;;;2.59;94.53
20015;BME280;61787;42.022;23.078;2023-01-04T02:47:08;97847.06;;;2.55;94.82
20015;BME280;61787;42.022;23.078;2023-01-04T02:48:11;97841.47;;;2.51;95.09
20015;BME280;61787;42.022;23.078;2023-01-04T02:49:31;97846.53;;;2.53;94.88
20015;BME280;61787;42.022;23.078;2023-01-04T02:50:55;97847.34;;;2.58;94.28
20015;BME280;61787;42.022;23.078;2023-01-04T02:51:58;97846.84;;;2.62;94.21
20015;BME280;61787;42.022;23.078;2023-01-04T02:54:29;97849.81;;;2.70;93.34
20015;BME280;61787;42.022;23.078;2023-01-04T02:56:07;97856.19;;;2.74;91.47
20015;BME280;61787;42.022;23.078;2023-01-04T02:57:31;97852.94;;;2.67;90.61
20015;BME280;61787;42.022;23.078;2023-01-04T03:00:32;97849.44;;;2.56;88.55
20015;BME280;61787;42.022;23.078;2023-01-04T03:04:05;97843.78;;;2.38;89.17
20015;BME280;61787;42.022;23.078;2023-01-04T03:07:21;97846.63;;;2.31;89.59
20015;BME280;61787;42.022;23.078;2023-01-04T03:09:30;97842.13;;;2.32;90.01
20015;BME280;61787;42.022;23.078;2023-01-04T03:10:54;97837.88;;;2.26;89.81
20015;BME280;61787;42.022;23.078;2023-01-04T03:12:03;97847.84;;;2.13;89.65
20015;BME280;61787;42.022;23.078;2023-01-04T03:13:39;97848.38;;;2.15;89.81
20015;BME280;61787;42.022;23.078;2023-01-04T03:14:46;97839.94;;;2.19;90.01
20015;BME280;61787;42.022;23.078;2023-01-04T03:16:18;97841.56;;;2.25;88.72
20015;BME280;61787;42.022;23.078;2023-01-04T03:17:23;97846.19;;;2.07;89.68
20015;BME280;61787;42.022;23.078;2023-01-04T03:18:28;97843.50;;;2.02;89.77
20015;BME280;61787;42.022;23.078;2023-01-04T03:19:33;97845.41;;;2.07;89.80
20015;BME280;61787;42.022;23.078;2023-01-04T03:20:55;97849.31;;;1.99;89.56
20015;BME280;61787;42.022;23.078;2023-01-04T03:21:57;97848.63;;;1.82;89.79
20015;BME280;61787;42.022;23.078;2023-01-04T03:23:04;97859.03;;;1.40;91.14
20015;BME280;61787;42.022;23.078;2023-01-04T03:24:25;97860.06;;;1.12;94.32
20015;BME280;61787;42.022;23.078;2023-01-04T03:25:55;97851.56;;;1.10;95.42
20015;BME280;61787;42.022;23.078;2023-01-04T03:27:19;97848.00;;;1.21;94.70
20015;BME280;61787;42.022;23.078;2023-01-04T03:28:40;97856.84;;;1.10;95.31
20015;BME280;61787;42.022;23.078;2023-01-04T03:30:08;97847.28;;;1.04;96.55
20015;BME280;61787;42.022;23.078;2023-01-04T03:31:34;97858.13;;;1.08;96.82
20015;BME280;61787;42.022;23.078;2023-01-04T03:33:01;97859.75;;;1.09;96.94
20015;BME280;61787;42.022;23.078;2023-01-04T03:34:23;97854.34;;;0.99;96.12
20015;BME280;61787;42.022;23.078;2023-01-04T03:35:48;97857.16;;;1.14;95.80
20015;BME280;61787;42.022;23.078;2023-01-04T03:38:38;97863.66;;;0.84;96.34
20015;BME280;61787;42.022;23.078;2023-01-04T03:40:38;97863.22;;;0.93;96.81
20015;BME280;61787;42.022;23.078;2023-01-04T03:42:09;97863.63;;;1.01;96.35
20015;BME280;61787;42.022;23.078;2023-01-04T03:43:41;97864.59;;;0.95;97.38
20015;BME280;61787;42.022;23.078;2023-01-04T03:45:23;97860.53;;;0.88;98.38
20015;BME280;61787;42.022;23.078;2023-01-04T03:46:48;97861.25;;;0.83;98.33
20015;BME280;61787;42.022;23.078;2023-01-04T03:48:13;97860.00;;;0.85;98.74
20015;BME280;61787;42.022;23.078;2023-01-04T03:49:39;97856.63;;;0.90;98.67
20015;BME280;61787;42.022;23.078;2023-01-04T03:50:48;97859.31;;;0.95;99.01
20015;BME280;61787;42.022;23.078;2023-01-04T03:51:56;97858.34;;;1.01;98.48
20015;BME280;61787;42.022;23.078;2023-01-04T03:52:59;97853.66;;;1.08;97.81
20015;BME280;61787;42.022;23.078;2023-01-04T03:54:08;97858.28;;;1.18;97.46
20015;BME280;61787;42.022;23.078;2023-01-04T03:55:12;97853.34;;;1.26;97.03
20015;BME280;61787;42.022;23.078;2023-01-04T03:56:16;97859.78;;;1.36;96.39
20015;BME280;61787;42.022;23.078;2023-01-04T03:57:19;97852.91;;;1.35;96.37
20015;BME280;61787;42.022;23.078;2023-01-04T03:58:22;97856.59;;;1.34;95.93
20015;BME280;61787;42.022;23.078;2023-01-04T03:59:24;97854.00;;;1.39;95.60
20015;BME280;61787;42.022;23.078;2023-01-04T04:00:26;97850.81;;;1.37;95.25
20015;BME280;61787;42.022;23.078;2023-01-04T04:01:28;97857.38;;;1.34;94.70
20015;BME280;61787;42.022;23.078;2023-01-04T04:02:32;97857.16;;;1.36;95.09
20015;BME280;61787;42.022;23.078;2023-01-04T04:03:35;97860.09;;;1.39;95.20
20015;BME280;61787;42.022;23.078;2023-01-04T04:04:55;97847.44;;;1.41;94.88
20015;BME280;61787;42.022;23.078;2023-01-04T04:06:15;97857.84;;;1.26;94.30
20015;BME280;61787;42.022;23.078;2023-01-04T04:07:35;97858.59;;;1.21;94.14
20015;BME280;61787;42.022;23.078;2023-01-04T04:08:55;97856.22;;;1.25;94.67
20015;BME280;61787;42.022;23.078;2023-01-04T04:09:57;97851.31;;;1.34;94.43
20015;BME280;61787;42.022;23.078;2023-01-04T04:11:00;97857.16;;;1.36;94.70
20015;BME280;61787;42.022;23.078;2023-01-04T04:12:21;97855.94;;;1.43;94.81
20015;BME280;61787;42.022;23.078;2023-01-04T04:13:23;97853.63;;;1.52;94.25
20015;BME280;61787;42.022;23.078;2023-01-04T04:14:25;97848.34;;;1.52;94.26
20015;BME280;61787;42.022;23.078;2023-01-04T04:15:26;97850.47;;;1.55;93.97
20015;BME280;61787;42.022;23.078;2023-01-04T04:16:28;97856.31;;;1.57;93.43
20015;BME280;61787;42.022;23.078;2023-01-04T04:17:30;97849.88;;;1.48;93.08
20015;BME280;61787;42.022;23.078;2023-01-04T04:18:31;97855.00;;;1.33;93.61
20015;BME280;61787;42.022;23.078;2023-01-04T04:19:33;97857.44;;;1.39;93.55
20015;BME280;61787;42.022;23.078;2023-01-04T04:20:34;97856.22;;;1.47;93.80
20015;BME280;61787;42.022;23.078;2023-01-04T04:21:36;97859.47;;;1.54;93.41
20015;BME280;61787;42.022;23.078;2023-01-04T04:22:38;97855.81;;;1.60;92.49
20015;BME280;61787;42.022;23.078;2023-01-04T04:23:40;97853.13;;;1.55;91.76
20015;BME280;61787;42.022;23.078;2023-01-04T04:24:41;97857.81;;;1.48;91.35
20015;BME280;61787;42.022;23.078;2023-01-04T04:25:44;97859.91;;;1.46;90.25
20015;BME280;61787;42.022;23.078;2023-01-04T04:26:45;97860.25;;;1.27;90.44
20015;BME280;61787;42.022;23.078;2023-01-04T04:27:47;97856.19;;;1.20;90.96
20015;BME280;61787;42.022;23.078;2023-01-04T04:28:49;97855.66;;;1.18;91.63
20015;BME280;61787;42.022;23.078;2023-01-04T04:29:51;97860.53;;;1.09;92.31
20015;BME280;61787;42.022;23.078;2023-01-04T04:30:53;97859.38;;;1.00;93.33
20015;BME280;61787;42.022;23.078;2023-01-04T04:31:54;97857.19;;;0.92;94.25
20015;BME280;61787;42.022;23.078;2023-01-04T04:32:56;97854.53;;;0.92;95.13
20015;BME280;61787;42.022;23.078;2023-01-04T04:33:58;97863.91;;;0.83;96.43
20015;BME280;61787;42.022;23.078;2023-01-04T04:34:59;97865.94;;;0.76;96.57
20015;BME280;61787;42.022;23.078;2023-01-04T04:36:01;97861.75;;;0.80;98.01
20015;BME280;61787;42.022;23.078;2023-01-04T04:37:02;97860.59;;;0.71;97.57
20015;BME280;61787;42.022;23.078;2023-01-04T04:38:04;97865.66;;;0.56;98.37
20015;BME280;61787;42.022;23.078;2023-01-04T04:39:06;97863.41;;;0.48;99.31
20015;BME280;61787;42.022;23.078;2023-01-04T04:40:08;97859.09;;;0.41;100.00
20015;BME280;61787;42.022;23.078;2023-01-04T04:41:32;97862.16;;;0.33;100.00
20015;BME280;61787;42.022;23.078;2023-01-04T04:42:44;97866.16;;;0.19;100.00
20015;BME280;61787;42.022;23.078;2023-01-04T04:43:46;97868.22;;;0.17;100.00
20015;BME280;61787;42.022;23.078;2023-01-04T04:44:47;97861.94;;;0.18;100.00
20015;BME280;61787;42.022;23.078;2023-01-04T04:45:49;97866.63;;;0.16;100.00
20015;BME280;61787;42.022;23.078;2023-01-04T04:46:51;97869.34;;;0.21;100.00
20015;BME280;61787;42.022;23.078;2023-01-04T04:47:52;97868.31;;;0.22;100.00
20015;BME280;61787;42.022;23.078;2023-01-04T04:48:54;97869.34;;;0.21;100.00
20015;BME280;61787;42.022;23.078;2023-01-04T04:49:55;97868.22;;;0.17;100.00
20015;BME280;61787;42.022;23.078;2023-01-04T04:50:57;97865.69;;;0.22;100.00
20015;BME280;61787;42.022;23.078;2023-01-04T04:51:59;97866.72;;;0.38;100.00
20015;BME280;61787;42.022;23.078;2023-01-04T04:53:00;97867.09;;;0.47;100.00
20015;BME280;61787;42.022;23.078;2023-01-04T04:54:02;97871.25;;;0.42;100.00
20015;BME280;61787;42.022;23.078;2023-01-04T04:55:05;97869.19;;;0.45;100.00
20015;BME280;61787;42.022;23.078;2023-01-04T04:56:07;97874.22;;;0.46;100.00
20015;BME280;61787;42.022;23.078;2023-01-04T04:57:08;97872.06;;;0.43;100.00
20015;BME280;61787;42.022;23.078;2023-01-04T04:58:10;97878.63;;;0.40;100.00
20015;BME280;61787;42.022;23.078;2023-01-04T04:59:11;97875.25;;;0.45;100.00
20015;BME280;61787;42.022;23.078;2023-01-04T05:00:13;97883.06;;;0.57;100.00
20015;BME280;61787;42.022;23.078;2023-01-04T05:01:15;97875.22;;;0.62;100.00
20015;BME280;61787;42.022;23.078;2023-01-04T05:02:17;97877.47;;;0.70;100.00
20015;BME280;61787;42.022;23.078;2023-01-04T05:03:19;97881.50;;;0.77;100.00
20015;BME280;61787;42.022;23.078;2023-01-04T05:04:20;97887.94;;;0.81;100.00
20015;BME280;61787;42.022;23.078;2023-01-04T05:05:22;97881.78;;;0.76;100.00
20015;BME280;61787;42.022;23.078;2023-01-04T05:06:24;97891.38;;;0.82;100.00
20015;BME280;61787;42.022;23.078;2023-01-04T05:07:25;97883.50;;;0.87;100.00
20015;BME280;61787;42.022;23.078;2023-01-04T05:08:27;97891.25;;;0.94;100.00
20015;BME280;61787;42.022;23.078;2023-01-04T05:09:28;97891.44;;;1.09;100.00
20015;BME280;61787;42.022;23.078;2023-01-04T05:10:31;97890.75;;;1.18;100.00
20015;BME280;61787;42.022;23.078;2023-01-04T05:11:33;97886.09;;;1.25;100.00
20015;BME280;61787;42.022;23.078;2023-01-04T05:12:53;97889.34;;;1.33;100.00
20015;BME280;61787;42.022;23.078;2023-01-04T05:14:00;97892.59;;;1.40;100.00
20015;BME280;61787;42.022;23.078;2023-01-04T05:15:02;97894.13;;;1.36;100.00
20015;BME280;61787;42.022;23.078;2023-01-04T05:16:05;97891.72;;;1.34;100.00
20015;BME280;61787;42.022;23.078;2023-01-04T05:17:07;97887.56;;;1.38;100.00
20015;BME280;61787;42.022;23.078;2023-01-04T05:18:12;97891.84;;;1.44;100.00
20015;BME280;61787;42.022;23.078;2023-01-04T05:19:14;97897.47;;;1.48;99.23
20015;BME280;61787;42.022;23.078;2023-01-04T05:20:15;97899.97;;;1.38;98.69
20015;BME280;61787;42.022;23.078;2023-01-04T05:21:17;97901.94;;;1.25;98.37
20015;BME280;61787;42.022;23.078;2023-01-04T05:22:20;97898.56;;;1.30;98.88
20015;BME280;61787;42.022;23.078;2023-01-04T05:23:22;97899.88;;;1.27;98.80
20015;BME280;61787;42.022;23.078;2023-01-04T05:24:24;97896.09;;;1.23;98.57
20015;BME280;61787;42.022;23.078;2023-01-04T05:25:25;97896.66;;;1.25;98.42
20015;BME280;61787;42.022;23.078;2023-01-04T05:26:27;97898.81;;;1.28;99.09
20015;BME280;61787;42.022;23.078;2023-01-04T05:27:29;97902.00;;;1.31;98.74
20015;BME280;61787;42.022;23.078;2023-01-04T05:28:30;97896.91;;;1.02;97.68
20015;BME280;61787;42.022;23.078;2023-01-04T05:29:32;97900.59;;;1.01;99.69
20015;BME280;61787;42.022;23.078;2023-01-04T05:30:53;97899.69;;;1.12;100.00
20015;BME280;61787;42.022;23.078;2023-01-04T05:31:56;97904.41;;;1.10;99.54
20015;BME280;61787;42.022;23.078;2023-01-04T05:32:58;97898.75;;;1.02;99.63
20015;BME280;61787;42.022;23.078;2023-01-04T05:34:00;97903.63;;;0.93;99.63
20015;BME280;61787;42.022;23.078;2023-01-04T05:35:02;97899.78;;;1.01;99.90
20015;BME280;61787;42.022;23.078;2023-01-04T05:36:03;97906.72;;;0.85;100.00
20015;BME280;61787;42.022;23.078;2023-01-04T05:37:05;97903.84;;;0.70;100.00
20015;BME280;61787;42.022;23.078;2023-01-04T05:38:07;97910.41;;;0.67;100.00
20015;BME280;61787;42.022;23.078;2023-01-04T05:39:08;97904.31;;;0.67;100.00
20015;BME280;61787;42.022;23.078;2023-01-04T05:40:10;97907.53;;;0.69;100.00
20015;BME280;61787;42.022;23.078;2023-01-04T05:41:12;97910.53;;;0.77;100.00
20015;BME280;61787;42.022;23.078;2023-01-04T05:42:32;97908.16;;;0.76;100.00
20015;BME280;61787;42.022;23.078;2023-01-04T05:43:33;97905.09;;;0.84;100.00
20015;BME280;61787;42.022;23.078;2023-01-04T05:44:35;97909.72;;;0.94;100.00
20015;BME280;61787;42.022;23.078;2023-01-04T05:45:37;97915.94;;;1.04;100.00
20015;BME280;61787;42.022;23.078;2023-01-04T05:46:38;97912.88;;;1.12;100.00
20015;BME280;61787;42.022;23.078;2023-01-04T05:47:40;97906.13;;;1.21;99.43
20015;BME280;61787;42.022;23.078;2023-01-04T05:48:41;97907.84;;;1.33;97.70
20015;BME280;61787;42.022;23.078;2023-01-04T05:49:43;97904.47;;;1.37;96.98
20015;BME280;61787;42.022;23.078;2023-01-04T05:50:45;97912.47;;;1.42;96.43
20015;BME280;61787;42.022;23.078;2023-01-04T05:51:47;97908.50;;;1.45;96.30
20015;BME280;61787;42.022;23.078;2023-01-04T05:52:49;97910.34;;;1.44;95.70
20015;BME280;61787;42.022;23.078;2023-01-04T05:53:51;97912.50;;;1.25;95.59
20015;BME280;61787;42.022;23.078;2023-01-04T05:54:52;97909.81;;;1.20;96.12
20015;BME280;61787;42.022;23.078;2023-01-04T05:55:54;97910.97;;;1.29;95.57
20015;BME280;61787;42.022;23.078;2023-01-04T05:56:56;97915.84;;;1.38;95.34
20015;BME280;61787;42.022;23.078;2023-01-04T05:57:58;97910.09;;;1.24;95.72
20015;BME280;61787;42.022;23.078;2023-01-04T05:58:59;97918.66;;;1.09;96.39
20015;BME280;61787;42.022;23.078;2023-01-04T06:00:02;97912.31;;;1.10;96.65
20015;BME280;61787;42.022;23.078;2023-01-04T06:01:04;97914.34;;;1.03;97.14
20015;BME280;61787;42.022;23.078;2023-01-04T06:02:34;97909.72;;;0.94;97.19
20015;BME280;61787;42.022;23.078;2023-01-04T06:03:36;97919.97;;;0.90;97.44
20015;BME280;61787;42.022;23.078;2023-01-04T06:04:42;97915.72;;;0.89;97.46
20015;BME280;61787;42.022;23.078;2023-01-04T06:05:50;97917.44;;;0.78;98.19
20015;BME280;61787;42.022;23.078;2023-01-04T06:06:52;97921.91;;;0.78;98.53
20015;BME280;61787;42.022;23.078;2023-01-04T06:07:54;97915.66;;;0.84;98.39
20015;BME280;61787;42.022;23.078;2023-01-04T06:08:55;97922.53;;;0.85;98.36
20015;BME280;61787;42.022;23.078;2023-01-04T06:09:57;97918.94;;;0.91;98.69
20015;BME280;61787;42.022;23.078;2023-01-04T06:10:58;97920.78;;;0.91;98.78
20015;BME280;61787;42.022;23.078;2023-01-04T06:12:00;97914.75;;;0.95;99.02
20015;BME280;61787;42.022;23.078;2023-01-04T06:13:02;97925.69;;;1.04;99.28
20015;BME280;61787;42.022;23.078;2023-01-04T06:14:03;97920.25;;;1.10;98.40
20015;BME280;61787;42.022;23.078;2023-01-04T06:15:05;97922.38;;;1.13;98.49
20015;BME280;61787;42.022;23.078;2023-01-04T06:16:07;97918.66;;;1.09;98.50
20015;BME280;61787;42.022;23.078;2023-01-04T06:17:09;97922.94;;;1.15;98.59
20015;BME280;61787;42.022;23.078;2023-01-04T06:18:10;97923.53;;;1.17;98.63
20015;BME280;61787;42.022;23.078;2023-01-04T06:19:14;97930.63;;;1.17;97.87
20015;BME280;61787;42.022;23.078;2023-01-04T06:20:15;97923.53;;;1.17;97.73